CDT,Max TemperatureF,Mean TemperatureF,Min TemperatureF,Max Dew PointF,MeanDew PointF,Min DewpointF,Max Humidity, Mean Humidity, Min Humidity, Max Sea Level PressureIn, Mean Sea Level PressureIn, Min Sea Level PressureIn, Max VisibilityMiles, Mean VisibilityMiles, Min VisibilityMiles, Max Wind SpeedMPH, Mean Wind SpeedMPH, Max Gust SpeedMPH,PrecipitationIn, CloudCover, Events, WindDirDegrees
2013-7-1,84,71,57,58,52,46,84,56,28,30.25,30.21,30.16,10,10,10,17,5,21,0.00,1,,178
2013-7-2,85,73,60,56,52,47,78,53,28,30.17,30.11,30.01,10,10,8,13,5,17,0.00,0,,171
2013-7-3,88,74,60,58,54,51,78,54,30,29.99,29.87,29.71,10,10,10,23,10,32,0.00,0,,150
2013-7-4,84,74,63,67,60,53,90,62,34,29.77,29.73,29.67,10,10,2,22,11,30,0.22,4,Thunderstorm,285
2013-7-5,84,71,58,63,60,57,100,73,45,29.85,29.78,29.72,10,8,1,40,5,56,1.01,4,,35
2013-7-6,83,72,61,68,63,57,100,74,48,29.84,29.78,29.74,10,7,0,16,7,22,0.29,6,Rain-Thunderstorm,69
2013-7-7,80,69,58,61,56,53,87,65,42,29.96,29.92,29.86,10,10,10,14,5,16,0.00,0,,257
2013-7-8,84,73,61,68,62,57,87,69,51,29.96,29.91,29.86,10,9,2,32,6,40,1.20,3,Thunderstorm,172
2013-7-9,69,63,57,63,56,51,87,70,53,30.11,29.99,29.82,10,9,1,21,10,25,0.01,5,Thunderstorm,327
2013-7-10,80,67,54,59,54,50,93,65,36,30.11,30.04,29.96,10,8,5,12,7,,0.00,0,,206
2013-7-11,90,75,60,69,63,56,84,67,50,29.95,29.76,29.60,10,10,5,18,10,25,0.00,1,Rain-Thunderstorm,136
2013-7-12,85,76,67,67,64,60,79,64,48,29.87,29.70,29.60,10,10,10,18,8,26,0.01,3,Rain-Thunderstorm,213
2013-7-13,87,74,60,68,63,58,97,70,43,30.03,29.93,29.84,10,10,8,25,9,36,0.02,1,Rain-Thunderstorm,151
2013-7-14,73,66,58,61,55,53,93,73,53,30.26,30.18,30.05,10,10,10,20,8,24,0.00,6,,347
2013-7-15,81,69,57,70,63,56,100,84,67,30.20,30.05,29.89,10,9,1,33,9,43,0.79,6,Rain-Thunderstorm,118
2013-7-16,74,68,61,63,60,57,93,79,64,30.22,30.07,29.90,10,9,1,25,10,33,0.28,3,Rain-Thunderstorm,337
2013-7-17,74,68,62,60,57,53,93,73,53,30.24,30.17,30.01,10,10,2,17,9,23,0.00,5,,48
2013-7-18,85,73,60,68,60,52,90,64,37,29.98,29.86,29.76,10,10,9,29,12,37,0.00,0,,295
2013-7-19,83,72,60,62,58,55,97,72,46,29.98,29.92,29.87,10,9,2,31,12,40,0.23,2,Rain-Thunderstorm,272
2013-7-20,69,62,55,59,53,48,97,78,59,30.07,30.01,29.94,10,10,10,15,8,18,0.00,6,,71
2013-7-21,83,69,55,67,58,52,93,74,55,29.95,29.77,29.59,10,10,10,24,13,33,0.00,2,Thunderstorm,144
2013-7-22,72,66,59,57,54,51,90,72,53,29.99,29.87,29.73,10,10,10,18,10,25,0.00,6,,322
2013-7-23,72,65,57,57,54,51,93,73,53,30.08,30.05,30.00,10,10,10,9,3,12,0.00,5,,122
2013-7-24,79,69,58,59,55,51,90,65,39,30.05,30.01,29.97,10,10,7,22,11,30,T,0,Rain,275
2013-7-25,69,61,53,58,52,48,90,70,49,30.20,30.06,29.96,10,10,10,26,14,33,0.01,5,Rain,295
2013-7-26,68,58,48,52,48,42,93,68,42,30.33,30.27,30.20,10,10,10,15,8,21,0.00,4,,337
2013-7-27,70,57,43,48,44,41,93,65,37,30.29,30.20,30.08,10,10,10,13,4,17,0.00,1,,87
2013-7-28,75,59,42,49,45,41,89,61,33,30.08,30.02,29.95,10,10,10,16,8,21,0.00,0,,120
2013-7-29,70,63,55,62,55,47,93,77,60,30.02,29.94,29.89,10,9,2,18,8,23,0.28,4,Rain-Thunderstorm,204
2013-7-30,72,63,53,56,54,51,93,73,53,30.12,30.08,30.03,10,10,6,13,5,15,0.00,2,,272
2013-7-31,76,63,50,53,48,44,93,66,38,30.17,30.12,30.05,10,10,10,16,9,30,0.00,1,,272